Time;durP1;ratioP1;P1;durP2;ratioP2;P2;SDS_P1;SDS_P2;PMS_P1;PMS_P2;Temp;Humidity;BMP_temperature;BMP_pressure;BME280_temperature;BME280_humidity;BME280_pressure;Samples;Min_cycle;Max_cycle;Signal;HPM_P1;HPM_P2
2022/05/27 00:02:03;;;;;;;3.60;2.60;;;;;;;24.14;49.67;95182.28;5107394;28;20193;-77
2022/05/27 00:04:30;;;;;;;3.05;2.70;;;;;;;24.12;49.61;95185.09;5093502;28;20182;-78
2022/05/27 00:06:56;;;;;;;4.20;2.70;;;;;;;24.10;49.16;95181.09;5100312;27;20177;-80
2022/05/27 00:09:25;;;;;;;4.75;3.00;;;;;;;24.07;49.52;95177.06;5112433;28;20185;-77
2022/05/27 00:11:52;;;;;;;4.53;2.53;;;;;;;24.03;49.75;95178.50;5127450;27;20575;-81
2022/05/27 00:14:19;;;;;;;3.80;2.90;;;;;;;24.02;49.75;95187.34;5137841;27;20215;-79
2022/05/27 00:16:46;;;;;;;3.85;2.85;;;;;;;23.99;50.07;95187.75;5136392;27;20199;-78
2022/05/27 00:19:13;;;;;;;3.53;2.80;;;;;;;23.95;49.91;95183.97;5136667;27;20192;-78
2022/05/27 00:21:40;;;;;;;2.97;2.67;;;;;;;23.94;50.05;95185.78;5130950;27;20607;-77
2022/05/27 00:24:07;;;;;;;4.95;2.92;;;;;;;23.93;50.04;95180.78;5115430;28;20189;-80
2022/05/27 00:26:35;;;;;;;5.63;2.60;;;;;;;23.93;49.91;95178.97;5114708;27;20200;-76
2022/05/27 00:29:02;;;;;;;3.50;2.42;;;;;;;23.92;49.91;95179.16;5113153;27;20192;-77
2022/05/27 00:31:29;;;;;;;2.80;2.58;;;;;;;23.89;49.84;95174.38;5132233;27;20200;-78
2022/05/27 00:33:56;;;;;;;2.90;2.60;;;;;;;23.87;49.69;95174.53;5133238;27;20637;-76
2022/05/27 00:36:23;;;;;;;3.00;2.80;;;;;;;23.86;49.74;95170.34;5127252;27;20220;-79
2022/05/27 00:38:51;;;;;;;5.80;2.70;;;;;;;23.85;49.81;95167.94;5113791;27;20188;-77
2022/05/27 00:41:17;;;;;;;11.70;2.63;;;;;;;23.81;49.92;95171.97;5112615;27;20192;-78
2022/05/27 00:43:46;;;;;;;8.13;3.00;;;;;;;23.77;49.74;95166.38;5112742;28;20238;-80
2022/05/27 00:46:16;;;;;;;2.80;2.60;;;;;;;23.76;50.05;95167.38;5112458;28;20646;-79
2022/05/27 00:48:45;;;;;;;4.07;3.05;;;;;;;23.73;50.06;95168.59;5114674;27;20677;-81
2022/05/27 00:51:17;;;;;;;8.18;2.90;;;;;;;23.73;50.08;95168.59;5132881;27;20181;-78
2022/05/27 00:53:51;;;;;;;3.65;2.67;;;;;;;23.73;49.85;95171.19;5133027;27;20195;-78
2022/05/27 00:56:21;;;;;;;3.97;2.88;;;;;;;23.73;49.90;95167.78;5130890;27;20693;-81
2022/05/27 00:58:52;;;;;;;5.07;2.67;;;;;;;23.69;49.90;95170.00;5112324;28;20197;-80
2022/05/27 01:01:19;;;;;;;4.78;3.00;;;;;;;23.67;49.88;95163.41;5112944;28;20193;-79
2022/05/27 01:03:48;;;;;;;4.45;3.20;;;;;;;23.63;49.79;95170.03;5117416;28;20193;-78
2022/05/27 01:06:15;;;;;;;3.83;3.20;;;;;;;23.63;49.96;95165.59;5127813;27;20207;-78
2022/05/27 01:08:44;;;;;;;6.63;2.75;;;;;;;23.63;49.91;95167.41;5124972;28;20189;-79
2022/05/27 01:11:25;;;;;;;7.05;3.80;;;;;;;23.61;49.66;95164.19;5116708;27;20554;-79
2022/05/27 01:14:14;;;;;;;4.70;2.75;;;;;;;23.55;49.79;95155.38;5112728;28;20203;-79
2022/05/27 01:16:54;;;;;;;3.22;2.70;;;;;;;23.57;49.92;95163.00;5123578;27;20212;-79
2022/05/27 01:23:08;;;;;;;3.10;2.85;;;;;;;23.51;49.75;95155.00;5132140;27;20190;-76
2022/05/27 01:26:20;;;;;;;3.45;2.67;;;;;;;23.48;50.17;95147.56;5008822;28;20192;-78
2022/05/27 01:28:52;;;;;;;4.88;3.40;;;;;;;23.44;50.15;95146.38;5008955;28;20602;-76
2022/05/27 01:31:37;;;;;;;6.25;3.45;;;;;;;23.37;50.31;95136.97;5009402;28;20193;-79
2022/05/27 01:34:13;;;;;;;2.58;2.38;;;;;;;23.40;50.13;95141.75;5009047;28;20212;-79
2022/05/27 01:36:48;;;;;;;4.45;2.92;;;;;;;23.37;50.18;95148.22;4991468;28;20232;-78
2022/05/27 01:39:24;;;;;;;4.60;2.58;;;;;;;23.37;49.87;95147.41;4989403;28;20188;-77
2022/05/27 01:42:01;;;;;;;4.03;3.22;;;;;;;23.26;50.35;95127.97;5006745;28;20192;-78
2022/05/27 01:44:34;;;;;;;5.18;3.03;;;;;;;23.32;50.40;95142.81;5008827;28;20199;-80
2022/05/27 01:47:06;;;;;;;5.60;3.00;;;;;;;23.32;50.10;95142.03;5009002;28;20199;-78
2022/05/27 01:49:36;;;;;;;6.90;3.25;;;;;;;23.27;50.36;95138.22;5007757;28;20287;-78
2022/05/27 01:52:10;;;;;;;4.22;3.00;;;;;;;23.29;50.26;95144.00;5008802;28;20192;-75
2022/05/27 01:54:46;;;;;;;4.38;3.03;;;;;;;23.28;50.33;95144.22;5001207;28;20305;-78
2022/05/27 01:57:19;;;;;;;4.70;2.83;;;;;;;23.26;50.17;95144.41;4988835;28;20279;-74
2022/05/27 01:59:59;;;;;;;7.65;3.40;;;;;;;23.23;50.20;95138.84;4989277;28;20193;-75
2022/05/27 02:02:29;;;;;;;5.40;2.60;;;;;;;23.21;50.33;95138.22;5046499;28;20212;-76
2022/05/27 02:05:01;;;;;;;4.88;2.80;;;;;;;23.19;50.39;95145.47;5107686;27;20193;-75
2022/05/27 02:07:34;;;;;;;3.45;3.08;;;;;;;23.14;50.38;95134.81;5110782;28;20196;-78
2022/05/27 02:10:08;;;;;;;5.95;2.83;;;;;;;23.16;50.42;95146.66;5111332;28;20181;-75
2022/05/27 02:12:39;;;;;;;6.88;2.83;;;;;;;23.15;50.32;95144.28;5110874;28;20189;-76
2022/05/27 02:15:09;;;;;;;5.03;2.97;;;;;;;23.13;50.44;95139.25;5129285;27;20645;-74
2022/05/27 02:17:42;;;;;;;6.57;2.72;;;;;;;23.11;50.37;95133.44;5130337;27;20660;-79
2022/05/27 02:20:14;;;;;;;3.17;2.92;;;;;;;23.11;50.31;95135.25;5130864;27;20191;-76
2022/05/27 02:22:47;;;;;;;5.40;2.85;;;;;;;23.06;50.35;95128.03;5131362;27;20203;-74
2022/05/27 02:25:20;;;;;;;3.08;2.75;;;;;;;23.08;50.39;95143.47;5131499;27;20206;-78
2022/05/27 02:27:52;;;;;;;3.10;2.70;;;;;;;23.04;50.33;95141.25;5130933;27;20572;-76
2022/05/27 02:30:23;;;;;;;3.60;2.83;;;;;;;22.97;50.55;95132.66;5131419;27;20588;-73
2022/05/27 02:35:41;;;;;;;4.63;3.08;;;;;;;23.00;50.39;95150.50;5110197;28;20313;-77
2022/05/27 02:38:08;;;;;;;5.40;3.20;;;;;;;22.97;50.39;95144.88;5110947;28;20188;-76
2022/05/27 02:40:41;;;;;;;3.95;3.53;;;;;;;22.97;50.40;95157.94;5120305;27;20253;-74
2022/05/27 02:43:14;;;;;;;3.10;2.80;;;;;;;22.96;50.29;95151.91;5131155;27;20187;-75
2022/05/27 02:45:50;;;;;;;4.18;2.72;;;;;;;22.90;50.60;95136.28;5131221;27;20192;-75
2022/05/27 02:48:30;;;;;;;4.68;3.15;;;;;;;22.88;50.43;95141.66;5129648;27;20234;-74
2022/05/27 02:51:05;;;;;;;3.75;2.90;;;;;;;22.93;50.52;95152.34;5130731;27;21044;-76
2022/05/27 02:53:39;;;;;;;3.13;2.80;;;;;;;22.92;50.56;95145.50;5111389;27;20193;-78
2022/05/27 02:56:11;;;;;;;5.22;3.08;;;;;;;22.92;50.59;95149.91;5110336;28;20323;-76
2022/05/27 02:58:38;;;;;;;4.07;2.40;;;;;;;22.88;50.56;95148.69;5110470;28;20193;-76
2022/05/27 03:01:05;;;;;;;6.60;2.78;;;;;;;22.85;50.69;95138.69;5110194;28;20201;-80
2022/05/27 03:03:34;;;;;;;3.85;2.78;;;;;;;22.91;50.34;95153.53;5110229;28;20197;-75
2022/05/27 03:06:15;;;;;;;3.45;2.53;;;;;;;22.86;50.59;95148.09;5110037;28;20189;-75
2022/05/27 03:08:51;;;;;;;3.35;3.00;;;;;;;22.90;50.68;95152.72;5110367;28;20189;-76
2022/05/27 03:11:25;;;;;;;4.10;2.85;;;;;;;22.92;50.73;95155.94;5126285;27;20192;-75
2022/05/27 03:14:25;;;;;;;3.95;2.97;;;;;;;22.92;50.80;95158.53;5130784;27;20188;-74
2022/05/27 03:17:05;;;;;;;3.45;2.80;;;;;;;22.95;50.89;95160.75;5066865;28;20214;-75
2022/05/27 03:19:52;;;;;;;4.90;2.97;;;;;;;22.97;50.80;95163.16;5067062;28;20620;-74
2022/05/27 03:22:29;;;;;;;5.30;3.22;;;;;;;22.99;50.81;95158.53;5067189;28;20193;-77
2022/05/27 03:25:12;;;;;;;4.60;2.78;;;;;;;23.01;50.83;95153.91;5067397;28;20178;-77
2022/05/27 03:27:45;;;;;;;5.43;2.78;;;;;;;23.06;50.92;95153.28;5067302;28;20198;-75
2022/05/27 03:30:17;;;;;;;7.68;2.65;;;;;;;23.10;50.85;95155.31;5057029;28;20227;-74
2022/05/27 03:32:49;;;;;;;8.38;2.90;;;;;;;23.13;50.84;95162.72;5050747;28;20190;-74
2022/05/27 03:35:27;;;;;;;3.17;2.85;;;;;;;23.18;50.84;95156.88;5050836;28;20194;-75
2022/05/27 03:38:01;;;;;;;5.47;2.75;;;;;;;23.22;50.89;95155.47;5050886;28;20664;-74
2022/05/27 03:40:34;;;;;;;3.45;2.90;;;;;;;23.25;50.93;95153.25;5060393;28;20281;-80
2022/05/27 03:43:03;;;;;;;5.10;2.67;;;;;;;23.23;50.71;95144.84;5071093;28;20205;-76
2022/05/27 03:45:30;;;;;;;4.20;3.10;;;;;;;23.35;50.83;95155.44;5071007;28;20194;-74
2022/05/27 03:47:57;;;;;;;12.25;3.05;;;;;;;23.39;50.95;95151.41;5067386;28;20583;-77
2022/05/27 03:50:27;;;;;;;3.38;2.78;;;;;;;23.41;50.90;95148.63;5050815;28;20191;-76
2022/05/27 03:52:56;;;;;;;7.88;3.03;;;;;;;23.51;50.79;95151.56;5056902;28;20190;-75
2022/05/27 03:55:25;;;;;;;4.47;3.17;;;;;;;23.56;50.99;95149.16;5128351;27;20180;-74
2022/05/27 03:57:53;;;;;;;3.55;3.25;;;;;;;23.61;51.11;95153.75;5133722;27;20591;-74
2022/05/27 04:00:21;;;;;;;4.72;2.85;;;;;;;23.65;51.20;95150.53;5134264;27;20245;-76
2022/05/27 04:02:48;;;;;;;7.35;3.53;;;;;;;23.69;51.21;95156.94;5133736;27;20200;-75
2022/05/27 04:05:18;;;;;;;6.05;3.53;;;;;;;23.77;51.00;95153.31;5134265;27;20177;-75
2022/05/27 04:07:46;;;;;;;3.70;3.35;;;;;;;23.82;50.82;95144.84;5126065;27;20181;-76
2022/05/27 04:10:15;;;;;;;7.20;3.53;;;;;;;23.90;50.49;95161.06;5113690;28;20653;-74
2022/05/27 04:12:42;;;;;;;6.68;3.67;;;;;;;23.96;50.32;95156.81;5113497;28;20189;-75
2022/05/27 04:15:09;;;;;;;6.50;3.40;;;;;;;24.00;50.56;95161.41;5114458;27;20611;-78
2022/05/27 04:17:36;;;;;;;4.55;3.38;;;;;;;24.01;50.47;95151.78;5133023;27;20204;-76
2022/05/27 04:20:09;;;;;;;8.32;3.15;;;;;;;24.06;50.44;95159.81;5133169;27;20680;-74
2022/05/27 04:22:37;;;;;;;4.03;3.50;;;;;;;24.08;50.59;95154.34;5127676;27;20641;-77
2022/05/27 04:25:08;;;;;;;4.43;3.22;;;;;;;24.12;50.45;95152.91;5133818;27;20220;-80
2022/05/27 04:27:36;;;;;;;3.70;3.15;;;;;;;24.12;50.34;95152.91;5120155;27;20181;-79
2022/05/27 04:30:05;;;;;;;5.60;3.33;;;;;;;24.23;50.13;95163.50;5114138;27;20195;-80
2022/05/27 04:32:32;;;;;;;6.60;3.58;;;;;;;24.26;50.11;95160.47;5124903;27;20193;-81
2022/05/27 04:34:59;;;;;;;4.75;3.47;;;;;;;24.35;50.11;95160.19;5114035;27;20185;-78
2022/05/27 04:37:26;;;;;;;6.28;3.75;;;;;;;24.40;49.92;95163.84;5133464;27;20219;-79
2022/05/27 04:39:53;;;;;;;7.90;4.05;;;;;;;24.40;49.90;95147.34;5135941;27;20196;-80
2022/05/27 04:42:21;;;;;;;7.53;4.15;;;;;;;24.57;54.16;95160.69;5138370;27;20192;-77
2022/05/27 04:44:48;;;;;;;6.82;4.82;;;;;;;24.76;68.82;95163.16;5132270;27;20268;-73
2022/05/27 04:47:15;;;;;;;14.57;4.35;;;;;;;24.93;69.04;95160.00;5112755;27;20201;-75
2022/05/27 04:49:54;;;;;;;5.22;4.07;;;;;;;25.09;66.56;95161.28;5112496;28;20225;-73
2022/05/27 04:52:23;;;;;;;12.15;4.18;;;;;;;25.21;66.37;95154.28;5112982;28;20192;-75
2022/05/27 04:54:50;;;;;;;4.90;4.15;;;;;;;25.33;66.52;95151.75;5112770;28;20193;-74
2022/05/27 04:57:22;;;;;;;5.55;3.60;;;;;;;25.52;65.56;95164.66;5112741;28;20228;-76
2022/05/27 04:59:50;;;;;;;9.75;4.38;;;;;;;25.66;64.49;95161.88;5117433;27;20176;-74
2022/05/27 05:02:18;;;;;;;6.97;4.68;;;;;;;25.74;64.42;95156.34;5133374;27;20221;-75
2022/05/27 05:04:45;;;;;;;6.75;4.30;;;;;;;25.91;62.69;95161.81;5122440;27;20220;-78
2022/05/27 05:07:12;;;;;;;6.95;4.43;;;;;;;26.05;62.40;95144.88;5111967;28;20188;-79
2022/05/27 05:09:41;;;;;;;7.57;4.00;;;;;;;26.31;61.88;95153.38;5113595;27;20185;-76
2022/05/27 05:12:09;;;;;;;8.35;3.65;;;;;;;26.61;61.39;95159.41;5112289;27;20570;-74
2022/05/27 05:14:37;;;;;;;9.50;3.72;;;;;;;26.99;59.93;95155.56;5112422;27;20573;-77
2022/05/27 05:17:04;;;;;;;10.07;3.92;;;;;;;27.42;58.84;95147.31;5112141;28;20232;-78
2022/05/27 05:19:31;;;;;;;6.13;3.20;;;;;;;27.97;57.41;95151.28;5112024;28;20189;-82
2022/05/27 05:21:58;;;;;;;6.55;3.50;;;;;;;28.41;55.40;95138.38;5111957;28;20194;-78
2022/05/27 05:24:25;;;;;;;4.43;3.28;;;;;;;29.13;53.71;95158.72;5112325;28;20188;-75
2022/05/27 05:26:52;;;;;;;7.68;3.33;;;;;;;29.77;51.37;95160.91;5111743;28;20196;-75
2022/05/27 05:29:19;;;;;;;6.63;2.92;;;;;;;30.38;49.49;95157.06;5111885;28;20616;-76
2022/05/27 05:31:47;;;;;;;3.75;2.63;;;;;;;31.02;47.98;95160.75;5111532;28;20189;-74
2022/05/27 05:34:14;;;;;;;5.20;2.78;;;;;;;31.64;46.72;95152.13;5111758;28;20193;-75
2022/05/27 05:36:41;;;;;;;3.67;2.60;;;;;;;32.27;44.88;95157.34;5111360;28;20228;-75
2022/05/27 05:39:08;;;;;;;7.65;2.72;;;;;;;32.89;43.87;95148.38;5112291;28;20604;-77
2022/05/27 05:41:39;;;;;;;4.72;2.78;;;;;;;33.14;42.43;95107.81;5111278;28;20193;-74
2022/05/27 05:44:09;;;;;;;7.53;3.15;;;;;;;34.07;41.00;95157.63;5112118;27;20192;-77
2022/05/27 05:46:38;;;;;;;5.32;2.95;;;;;;;34.72;39.96;95169.94;5111439;28;20197;-78
2022/05/27 05:49:06;;;;;;;6.20;2.33;;;;;;;35.32;38.79;95168.63;5111384;28;20235;-76
2022/05/27 05:51:33;;;;;;;8.27;2.45;;;;;;;35.89;37.61;95168.81;5111086;28;20188;-75
2022/05/27 05:54:00;;;;;;;4.45;2.42;;;;;;;36.42;36.79;95166.75;5111483;28;20189;-76
2022/05/27 05:56:31;;;;;;;5.88;2.55;;;;;;;36.98;35.74;95170.44;5110952;27;20217;-79
2022/05/27 05:58:58;;;;;;;3.15;2.35;;;;;;;37.51;34.76;95169.22;5111307;28;20189;-75
2022/05/27 06:01:24;;;;;;;4.78;2.33;;;;;;;37.99;34.33;95171.50;5111378;28;20189;-77
2022/05/27 06:03:51;;;;;;;4.45;2.30;;;;;;;38.48;33.25;95172.59;5111497;28;20189;-74
2022/05/27 06:06:19;;;;;;;6.05;2.50;;;;;;;38.95;32.88;95173.06;5111492;27;20197;-74
2022/05/27 06:08:46;;;;;;;2.88;2.30;;;;;;;39.37;31.95;95172.53;5111143;28;20189;-78
2022/05/27 06:11:13;;;;;;;5.95;2.28;;;;;;;39.80;31.16;95179.94;5111180;28;20181;-75
2022/05/27 06:13:40;;;;;;;3.47;2.42;;;;;;;40.05;30.64;95164.22;5111190;28;20185;-76
2022/05/27 06:16:08;;;;;;;4.35;2.88;;;;;;;40.53;30.09;95168.72;5104423;28;20620;-77
2022/05/27 06:18:35;;;;;;;3.20;2.35;;;;;;;40.90;29.25;95169.94;5094452;28;20229;-77
2022/05/27 06:21:02;;;;;;;4.40;2.38;;;;;;;41.21;28.58;95169.72;5099416;28;20669;-77
2022/05/27 06:23:30;;;;;;;4.50;2.75;;;;;;;41.53;28.56;95173.72;5109489;28;20196;-76
2022/05/27 06:25:58;;;;;;;3.03;2.53;;;;;;;41.81;28.16;95171.38;5111693;27;20188;-76
2022/05/27 06:36:39;;;;;;;10.15;2.38;;;;;;;43.08;26.33;95170.25;5110150;28;20219;-76
2022/05/27 06:39:08;;;;;;;5.68;2.22;;;;;;;43.37;26.44;95168.50;5111885;27;20697;-74
2022/05/27 06:41:35;;;;;;;7.63;2.47;;;;;;;43.63;26.07;95176.28;5109545;28;20193;-75
2022/05/27 06:44:03;;;;;;;4.75;2.22;;;;;;;43.90;25.37;95170.22;5109942;28;20607;-77
2022/05/27 06:46:30;;;;;;;4.70;2.13;;;;;;;44.16;25.04;95174.44;5109540;28;20679;-78
2022/05/27 06:48:58;;;;;;;3.80;2.30;;;;;;;44.39;25.15;95158.56;5109128;28;20226;-76
2022/05/27 06:51:25;;;;;;;4.45;2.22;;;;;;;44.62;25.07;95154.19;5109688;28;20708;-75
2022/05/27 06:53:52;;;;;;;2.60;2.13;;;;;;;44.83;24.62;95159.41;5109669;28;20173;-76
2022/05/27 06:56:21;;;;;;;3.13;2.10;;;;;;;44.93;24.44;95136.53;5110018;28;20192;-75
2022/05/27 06:58:48;;;;;;;2.95;2.05;;;;;;;45.19;23.78;95157.66;5109704;28;20185;-77
2022/05/27 07:01:15;;;;;;;3.90;2.38;;;;;;;45.34;23.67;95148.78;5112210;28;20653;-74
2022/05/27 07:03:42;;;;;;;5.70;2.53;;;;;;;45.51;23.36;95155.75;5109033;28;20199;-75
2022/05/27 07:06:11;;;;;;;5.85;2.22;;;;;;;45.65;23.60;95152.59;5109500;28;20197;-76
2022/05/27 07:08:39;;;;;;;6.57;2.90;;;;;;;45.80;22.98;95154.50;5110219;28;20229;-79
2022/05/27 07:11:06;;;;;;;5.60;2.35;;;;;;;45.90;23.25;95147.75;5109674;28;20204;-76
2022/05/27 07:13:34;;;;;;;6.05;2.50;;;;;;;46.03;22.57;95135.69;5109374;28;20192;-76
2022/05/27 07:16:01;;;;;;;7.45;2.67;;;;;;;46.13;23.06;95132.44;5109159;28;20580;-77
2022/05/27 07:18:28;;;;;;;4.80;2.13;;;;;;;46.16;22.81;95123.63;5108898;28;20235;-77
2022/05/27 07:21:00;;;;;;;3.38;2.28;;;;;;;46.32;22.67;95133.59;5111364;28;20183;-77
2022/05/27 07:23:27;;;;;;;2.33;2.10;;;;;;;46.38;22.41;95127.56;5110932;28;20200;-74
2022/05/27 07:25:54;;;;;;;9.27;2.42;;;;;;;46.47;22.63;95127.34;5109560;28;20197;-77
2022/05/27 07:28:21;;;;;;;4.15;2.55;;;;;;;46.52;22.56;95130.53;5109690;28;20196;-75
2022/05/27 07:30:49;;;;;;;2.72;2.40;;;;;;;46.60;22.18;95133.41;5110049;28;20192;-74
2022/05/27 07:33:16;;;;;;;3.35;2.75;;;;;;;46.64;21.67;95129.63;5109749;28;20193;-75
2022/05/27 07:35:43;;;;;;;2.85;2.33;;;;;;;46.65;21.63;95112.22;5109134;28;20188;-79
2022/05/27 07:38:10;;;;;;;2.58;2.38;;;;;;;46.70;21.72;95119.28;5109761;28;20219;-76
2022/05/27 07:40:37;;;;;;;3.45;1.90;;;;;;;46.70;22.01;95101.09;5108901;28;20192;-74
2022/05/27 07:43:04;;;;;;;5.97;2.47;;;;;;;46.73;21.43;95105.03;5109169;28;20203;-72
2022/05/27 07:45:32;;;;;;;4.40;2.25;;;;;;;46.73;21.79;95105.81;5108806;28;20196;-74
2022/05/27 07:48:00;;;;;;;3.38;2.50;;;;;;;46.69;21.38;95104.19;5111125;28;20843;-74
2022/05/27 07:50:27;;;;;;;4.88;2.90;;;;;;;46.64;21.86;95104.47;5109061;28;20279;-77
2022/05/27 07:52:55;;;;;;;2.53;2.33;;;;;;;46.56;21.63;95098.16;5109481;28;20185;-77
2022/05/27 07:55:22;;;;;;;6.95;2.60;;;;;;;46.49;21.70;95104.16;5109106;28;20628;-77
2022/05/27 07:57:49;;;;;;;6.20;2.38;;;;;;;46.40;21.58;95103.63;5109304;28;20216;-73
2022/05/27 08:00:19;;;;;;;3.53;2.20;;;;;;;46.30;21.14;95098.78;5109138;28;20571;-76
2022/05/27 08:02:46;;;;;;;5.10;2.60;;;;;;;46.26;21.59;95097.94;5108870;28;20184;-76
2022/05/27 08:05:19;;;;;;;3.03;2.20;;;;;;;46.19;21.42;95098.56;5110220;27;20199;-77
2022/05/27 08:07:47;;;;;;;8.85;2.60;;;;;;;46.05;21.54;95090.13;5109997;28;20185;-76
2022/05/27 08:10:17;;;;;;;6.07;2.63;;;;;;;46.05;21.80;95100.97;5109248;28;20196;-77
2022/05/27 08:12:44;;;;;;;2.83;2.00;;;;;;;45.97;21.57;95093.84;5109745;28;20260;-76
2022/05/27 08:15:12;;;;;;;3.53;2.72;;;;;;;45.85;21.58;95086.63;5109751;28;20246;-77
2022/05/27 08:17:41;;;;;;;4.07;2.22;;;;;;;45.77;21.71;95084.88;5112084;28;20774;-77
2022/05/27 08:20:10;;;;;;;3.63;2.47;;;;;;;45.64;21.71;95078.81;5112785;28;20192;-77
2022/05/27 08:22:39;;;;;;;3.97;2.85;;;;;;;45.60;22.29;95091.50;5112396;28;20196;-76
2022/05/27 08:25:06;;;;;;;4.90;2.40;;;;;;;45.51;21.90;95080.06;5115410;27;20191;-75
2022/05/27 08:27:33;;;;;;;4.38;2.70;;;;;;;45.41;22.46;95081.41;5112106;28;20192;-77
2022/05/27 08:30:01;;;;;;;5.00;2.50;;;;;;;45.30;22.34;95075.75;5112510;27;20193;-75
2022/05/27 08:32:30;;;;;;;3.08;2.47;;;;;;;45.19;22.42;95082.03;5112125;27;20188;-73
2022/05/27 08:40:54;;;;;;;5.07;2.75;;;;;;;44.79;22.72;95064.06;5026498;28;20194;-72
2022/05/27 08:43:29;;;;;;;3.90;2.58;;;;;;;44.67;22.67;95064.13;5026934;28;20202;-71
2022/05/27 08:46:06;;;;;;;3.40;2.75;;;;;;;44.50;22.82;95057.09;5026323;28;20290;-73
2022/05/27 08:48:38;;;;;;;5.97;2.40;;;;;;;44.40;22.88;95053.00;5024778;28;20235;-73
2022/05/27 08:51:15;;;;;;;5.65;2.67;;;;;;;44.25;23.08;95051.84;5027313;28;20195;-73
2022/05/27 08:53:49;;;;;;;4.35;2.72;;;;;;;44.14;23.23;95052.66;5028101;28;20687;-75
2022/05/27 08:59:28;;;;;;;5.07;2.83;;;;;;;43.77;22.88;95053.53;5023927;28;20845;-75
2022/05/27 09:01:58;;;;;;;3.53;2.72;;;;;;;43.57;23.20;95055.28;5027770;28;20202;-75
2022/05/27 09:04:32;;;;;;;4.20;2.78;;;;;;;43.42;23.42;95049.75;5024453;28;20194;-77
2022/05/27 09:07:07;;;;;;;4.25;3.00;;;;;;;43.24;23.22;95041.91;5024584;28;20190;-76
2022/05/27 09:09:38;;;;;;;6.15;2.53;;;;;;;43.08;23.40;95046.41;5023848;28;20198;-79
2022/05/27 09:12:25;;;;;;;4.25;2.88;;;;;;;42.93;23.34;95039.75;5024720;28;20314;-75
2022/05/27 09:15:01;;;;;;;5.13;2.92;;;;;;;42.75;23.42;95036.50;5025385;28;20210;-74
2022/05/27 09:17:39;;;;;;;6.35;2.78;;;;;;;42.61;23.97;95035.97;5064368;28;20212;-76
2022/05/27 09:20:22;;;;;;;5.93;3.13;;;;;;;42.44;23.84;95033.47;5107522;28;20192;-78
2022/05/27 09:22:57;;;;;;;5.18;2.67;;;;;;;42.25;24.13;95037.47;5111721;27;20198;-77
2022/05/27 09:25:35;;;;;;;7.18;3.17;;;;;;;42.03;24.25;95025.16;5106520;28;20188;-73
2022/05/27 09:28:14;;;;;;;3.20;2.78;;;;;;;41.91;24.11;95024.31;5107852;27;20188;-78
2022/05/27 09:30:42;;;;;;;4.43;2.80;;;;;;;41.74;24.23;95026.00;5106058;28;20219;-76
2022/05/27 09:33:11;;;;;;;4.68;2.97;;;;;;;41.59;24.26;95018.53;5108782;27;20189;-78
2022/05/27 09:35:43;;;;;;;3.53;2.97;;;;;;;41.45;24.58;95015.31;5108597;28;20200;-77
2022/05/27 09:38:18;;;;;;;4.75;3.03;;;;;;;41.29;24.92;95010.50;5110538;27;20220;-75
2022/05/27 09:40:50;;;;;;;5.00;3.15;;;;;;;41.14;24.74;95011.03;5106386;28;20207;-75
2022/05/27 09:43:25;;;;;;;5.65;2.88;;;;;;;40.96;25.19;95004.97;5106415;28;20189;-75
2022/05/27 09:45:56;;;;;;;4.93;3.10;;;;;;;40.84;25.04;94994.91;5107488;28;20180;-75
2022/05/27 09:48:25;;;;;;;5.80;3.22;;;;;;;40.71;25.34;94995.13;5106063;27;20233;-74
2022/05/27 09:50:54;;;;;;;5.00;2.90;;;;;;;40.55;25.32;94992.22;5108404;27;20224;-77
2022/05/27 09:53:29;;;;;;;3.40;3.10;;;;;;;40.38;25.76;94983.06;5110354;28;20660;-77
2022/05/27 09:56:02;;;;;;;5.65;2.67;;;;;;;40.22;25.72;94981.22;5110927;28;20283;-78
2022/05/27 09:58:34;;;;;;;4.10;2.60;;;;;;;40.06;25.66;94979.00;5110159;28;20212;-79
2022/05/27 10:01:03;;;;;;;6.05;3.33;;;;;;;39.93;26.06;94979.19;5110078;27;20189;-76
2022/05/27 10:03:34;;;;;;;6.43;3.13;;;;;;;39.77;25.89;94971.66;5108972;28;20647;-76
2022/05/27 10:06:04;;;;;;;3.20;2.55;;;;;;;39.60;26.32;94977.00;5110748;27;20189;-75
2022/05/27 10:08:44;;;;;;;7.82;3.33;;;;;;;39.46;26.45;94970.97;5109652;28;20197;-76
2022/05/27 10:11:18;;;;;;;4.03;2.65;;;;;;;39.33;26.51;94964.66;5107879;28;20217;-77
2022/05/27 10:13:45;;;;;;;5.57;3.13;;;;;;;39.22;26.73;94966.09;5107760;28;20211;-76
2022/05/27 10:16:15;;;;;;;2.95;2.65;;;;;;;39.11;26.57;94963.66;5108737;27;20201;-73
2022/05/27 10:18:44;;;;;;;5.20;2.67;;;;;;;38.99;26.74;94960.03;5110445;27;20224;-74
2022/05/27 10:21:15;;;;;;;7.15;3.20;;;;;;;38.90;26.91;94962.66;5114497;27;20680;-74
2022/05/27 10:23:46;;;;;;;5.13;2.97;;;;;;;38.78;27.13;94949.13;5110066;28;20216;-78
2022/05/27 10:26:24;;;;;;;3.80;2.67;;;;;;;38.67;27.01;94947.81;5110406;27;20177;-72
2022/05/27 10:28:59;;;;;;;4.90;2.40;;;;;;;38.54;27.04;94946.81;5112183;27;20185;-73
2022/05/27 10:31:26;;;;;;;6.22;3.08;;;;;;;38.44;27.13;94947.88;5111767;27;20192;-73
2022/05/27 10:33:54;;;;;;;5.63;2.83;;;;;;;38.33;27.29;94935.88;5109884;28;20188;-75
2022/05/27 10:36:50;;;;;;;3.38;2.83;;;;;;;38.23;27.32;94926.22;5109800;28;20212;-74
2022/05/27 10:39:24;;;;;;;4.25;2.75;;;;;;;38.13;27.22;94924.59;5044493;28;20227;-73
2022/05/27 10:42:06;;;;;;;5.65;2.88;;;;;;;38.03;27.49;94924.06;5046936;28;20210;-74
2022/05/27 10:44:49;;;;;;;4.63;2.78;;;;;;;37.96;27.52;94918.38;5044859;28;20187;-74
2022/05/27 10:47:29;;;;;;;3.63;2.67;;;;;;;37.87;27.46;94919.13;5046286;28;20195;-76
2022/05/27 10:50:09;;;;;;;5.35;2.40;;;;;;;37.79;27.59;94914.47;5046287;28;20754;-75
2022/05/27 10:53:10;;;;;;;3.70;2.55;;;;;;;37.71;27.68;94912.53;5046588;28;20292;-74
2022/05/27 10:55:50;;;;;;;5.70;2.63;;;;;;;37.63;27.60;94906.03;5046763;28;20222;-74
2022/05/27 11:04:32;;;;;;;3.28;2.65;;;;;;;37.30;27.41;94893.97;4986359;28;20251;-75
2022/05/27 11:07:07;;;;;;;7.40;2.60;;;;;;;37.19;27.35;94882.75;4984473;28;20204;-74
2022/05/27 11:09:47;;;;;;;4.70;2.80;;;;;;;37.08;27.59;94879.53;4987399;28;20232;-73
2022/05/27 11:12:22;;;;;;;7.10;2.75;;;;;;;37.00;27.48;94872.22;4987708;28;20201;-73
2022/05/27 11:15:13;;;;;;;7.25;2.50;;;;;;;36.88;27.41;94872.75;4989496;28;20204;-74
2022/05/27 11:18:01;;;;;;;11.73;3.50;;;;;;;36.77;27.79;94873.25;5066668;28;20196;-74
2022/05/27 11:20:47;;;;;;;8.45;3.15;;;;;;;36.68;27.81;94863.28;5067017;28;20183;-76
2022/05/27 11:23:50;;;;;;;2.97;2.60;;;;;;;36.61;27.84;94860.22;5065092;28;20190;-75
2022/05/27 11:26:27;;;;;;;5.93;2.90;;;;;;;36.51;27.82;94852.44;5066291;28;20190;-74
2022/05/27 11:29:11;;;;;;;5.05;2.40;;;;;;;36.40;28.02;94848.38;5065543;28;20197;-75
2022/05/27 11:31:54;;;;;;;6.78;2.92;;;;;;;36.36;28.25;94847.41;5064822;28;20190;-76
2022/05/27 11:34:27;;;;;;;9.48;2.65;;;;;;;36.29;28.27;94836.34;5064364;28;20221;-75
2022/05/27 11:37:37;;;;;;;6.25;2.58;;;;;;;36.24;28.28;94836.47;5065656;28;20293;-74
2022/05/27 11:40:33;;;;;;;4.65;2.53;;;;;;;36.17;28.49;94836.84;4974181;28;20282;-76
2022/05/27 11:43:13;;;;;;;7.50;2.78;;;;;;;36.10;28.39;94828.47;5026970;28;20196;-76
2022/05/27 11:45:52;;;;;;;5.15;2.97;;;;;;;36.03;28.62;94820.88;5025155;28;20578;-76
2022/05/27 11:48:27;;;;;;;4.82;2.65;;;;;;;35.99;28.77;94813.75;5026305;28;20720;-75
2022/05/27 11:51:20;;;;;;;6.82;3.42;;;;;;;35.90;28.96;94811.75;5027979;28;20672;-75
2022/05/27 11:54:18;;;;;;;4.53;3.20;;;;;;;35.82;28.99;94799.13;5029098;28;20191;-75
2022/05/27 11:57:03;;;;;;;6.45;3.25;;;;;;;35.77;29.15;94806.41;5027018;28;20195;-73
2022/05/27 11:59:34;;;;;;;5.55;2.70;;;;;;;35.73;29.05;94797.44;5030168;28;20219;-72
2022/05/27 12:02:06;;;;;;;7.28;2.97;;;;;;;35.67;29.04;94791.44;5027423;28;20203;-78
2022/05/27 12:04:41;;;;;;;3.30;2.92;;;;;;;35.60;29.00;94783.03;5029781;28;20982;-76
2022/05/27 12:07:20;;;;;;;5.60;2.90;;;;;;;35.55;29.28;94791.91;5028522;28;20187;-73
2022/05/27 12:09:53;;;;;;;5.50;2.95;;;;;;;35.49;29.21;94790.38;5026904;28;20194;-75
2022/05/27 12:12:25;;;;;;;7.80;3.10;;;;;;;35.40;29.31;94776.16;5027036;28;20587;-73
2022/05/27 12:15:00;;;;;;;3.45;2.75;;;;;;;35.38;29.31;94787.09;5045944;28;20228;-75
2022/05/27 12:17:36;;;;;;;5.05;3.30;;;;;;;35.34;29.40;94780.00;5110417;28;20618;-75
2022/05/27 12:20:05;;;;;;;5.93;2.45;;;;;;;35.29;29.47;94780.88;5112206;27;20204;-77
2022/05/27 12:22:35;;;;;;;4.30;2.90;;;;;;;35.23;29.62;94766.06;5111000;27;20180;-75
2022/05/27 12:25:05;;;;;;;9.18;3.25;;;;;;;35.23;29.53;94771.38;5112460;27;20242;-75
2022/05/27 12:27:33;;;;;;;2.35;2.15;;;;;;;35.17;29.54;94752.06;5112408;27;20522;-75